Time;durP1;ratioP1;P1;durP2;ratioP2;P2;SDS_P1;SDS_P2;PMS_P1;PMS_P2;Temp;Humidity;BMP_temperature;BMP_pressure;BME280_temperature;BME280_humidity;BME280_pressure;Samples;Min_cycle;Max_cycle;Signal;HPM_P1;HPM_P2
2022/08/21 00:01:56;;;;;;;4.80;2.60;;;;;;;15.89;100.00;101662.44;5016796;28;20136;-47
2022/08/21 00:04:22;;;;;;;6.72;2.80;;;;;;;15.88;100.00;101664.28;5016208;28;20196;-46
2022/08/21 00:06:48;;;;;;;7.40;2.90;;;;;;;15.88;100.00;101656.19;5016308;28;20025;-46
2022/08/21 00:09:13;;;;;;;5.78;2.80;;;;;;;15.90;100.00;101658.72;5016793;28;20056;-48
2022/08/21 00:11:39;;;;;;;4.15;2.75;;;;;;;15.86;100.00;101660.91;5015773;28;20159;-45
2022/08/21 00:14:07;;;;;;;5.57;2.65;;;;;;;15.78;100.00;101659.13;5016044;28;20444;-46
2022/08/21 00:16:32;;;;;;;4.93;2.80;;;;;;;15.77;100.00;101652.03;5017062;28;20075;-49
2022/08/21 00:18:57;;;;;;;6.13;3.03;;;;;;;15.81;100.00;101657.91;5015828;28;20021;-49
2022/08/21 00:21:24;;;;;;;4.10;2.80;;;;;;;15.81;100.00;101657.91;5014951;28;20040;-47
2022/08/21 00:23:50;;;;;;;6.95;2.70;;;;;;;15.80;100.00;101651.69;5014135;28;20034;-47
2022/08/21 00:26:15;;;;;;;9.70;3.22;;;;;;;15.80;100.00;101657.09;5016698;28;20350;-47
2022/08/21 00:28:40;;;;;;;6.80;3.13;;;;;;;15.81;100.00;101650.66;5015133;28;20099;-45
2022/08/21 00:31:06;;;;;;;4.10;2.97;;;;;;;15.75;100.00;101646.00;5016183;28;20021;-44
2022/08/21 00:33:31;;;;;;;5.03;2.95;;;;;;;15.76;100.00;101644.97;5016426;28;20487;-45
2022/08/21 00:35:57;;;;;;;5.25;2.95;;;;;;;15.74;100.00;101646.97;5024907;28;20464;-48
2022/08/21 00:38:22;;;;;;;6.32;3.30;;;;;;;15.75;100.00;101645.09;5035262;28;20017;-46
2022/08/21 00:40:51;;;;;;;5.22;3.20;;;;;;;15.72;100.00;101643.63;5036281;28;20036;-44
2022/08/21 00:43:21;;;;;;;6.90;3.20;;;;;;;15.67;100.00;101641.44;5035792;28;20025;-47
2022/08/21 00:45:47;;;;;;;4.30;3.17;;;;;;;15.67;100.00;101641.44;5035397;28;20029;-46
2022/08/21 00:48:12;;;;;;;5.80;3.33;;;;;;;15.64;100.00;101641.78;5035595;28;20423;-46
2022/08/21 00:50:44;;;;;;;6.78;3.35;;;;;;;15.60;100.00;101637.78;5034349;28;20033;-46
2022/08/21 00:53:10;;;;;;;5.75;3.70;;;;;;;15.55;100.00;101640.16;5035012;28;20044;-47
2022/08/21 00:55:37;;;;;;;5.70;3.20;;;;;;;15.48;100.00;101642.72;5034338;28;20124;-46
2022/08/21 00:58:05;;;;;;;7.57;3.00;;;;;;;15.39;100.00;101643.72;5035683;28;20490;-47
2022/08/21 01:00:33;;;;;;;3.83;2.50;;;;;;;15.26;100.00;101638.91;5035543;28;20462;-45
2022/08/21 01:03:00;;;;;;;3.83;2.45;;;;;;;15.19;100.00;101640.63;5035679;28;20052;-45
2022/08/21 01:05:26;;;;;;;4.47;2.38;;;;;;;15.16;100.00;101643.66;5034232;28;20043;-46
2022/08/21 01:07:53;;;;;;;4.95;2.85;;;;;;;15.15;100.00;101638.44;5034624;28;20341;-46
2022/08/21 01:10:19;;;;;;;6.38;3.08;;;;;;;15.10;100.00;101647.00;5033901;28;20079;-48
2022/08/21 01:12:44;;;;;;;6.43;3.13;;;;;;;15.11;100.00;101643.31;5035523;28;20442;-46
2022/08/21 01:15:11;;;;;;;4.85;3.30;;;;;;;15.07;100.00;101641.97;5032479;28;20107;-46
2022/08/21 01:17:37;;;;;;;4.50;3.20;;;;;;;15.04;100.00;101636.97;5035258;28;20407;-50
2022/08/21 01:20:06;;;;;;;6.07;3.47;;;;;;;15.10;100.00;101647.00;5035511;28;20017;-46
2022/08/21 01:22:31;;;;;;;6.32;3.97;;;;;;;15.10;100.00;101639.81;5034891;28;20025;-47
2022/08/21 01:24:57;;;;;;;10.15;3.80;;;;;;;15.09;100.00;101643.50;5035233;28;20021;-48
2022/08/21 01:27:22;;;;;;;7.40;3.92;;;;;;;15.09;100.00;101645.34;5035344;28;20159;-45
2022/08/21 01:29:56;;;;;;;9.27;3.97;;;;;;;15.05;100.00;101636.78;5034449;28;20233;-46
2022/08/21 01:32:22;;;;;;;5.13;3.63;;;;;;;15.05;100.00;101638.63;5034228;28;20035;-49
2022/08/21 01:34:49;;;;;;;5.30;3.28;;;;;;;15.02;100.00;101641.66;5035164;28;20150;-48
2022/08/21 01:37:16;;;;;;;6.00;3.25;;;;;;;14.97;100.00;101633.25;5034126;28;20529;-48
2022/08/21 01:39:42;;;;;;;7.20;3.22;;;;;;;14.95;100.00;101643.34;5034996;28;20492;-45
2022/08/21 01:42:08;;;;;;;6.20;3.50;;;;;;;14.95;100.00;101636.09;5034731;28;20104;-45
2022/08/21 01:44:34;;;;;;;7.85;3.45;;;;;;;14.97;100.00;101644.00;5033142;28;20032;-45
2022/08/21 01:47:02;;;;;;;6.50;3.30;;;;;;;14.92;100.00;101641.84;5035390;28;20132;-47
2022/08/21 01:49:28;;;;;;;5.70;3.38;;;;;;;14.89;100.00;101645.69;5033421;28;20020;-46
2022/08/21 01:51:53;;;;;;;6.15;3.47;;;;;;;14.89;100.00;101639.50;5034207;28;20029;-47
2022/08/21 01:54:19;;;;;;;5.30;3.33;;;;;;;14.84;100.00;101634.63;5034449;28;20039;-46
2022/08/21 01:56:48;;;;;;;4.75;2.97;;;;;;;14.81;100.00;101634.13;5035620;28;20028;-44
2022/08/21 01:59:14;;;;;;;4.65;3.50;;;;;;;14.74;100.00;101629.41;5033372;28;20028;-46
2022/08/21 02:01:39;;;;;;;6.60;3.33;;;;;;;14.69;100.00;101628.25;5033922;28;20511;-45
2022/08/21 02:04:06;;;;;;;5.32;3.45;;;;;;;14.64;100.00;101634.13;5031774;28;20025;-45
2022/08/21 02:06:31;;;;;;;5.65;3.22;;;;;;;14.54;100.00;101634.28;5033952;28;20024;-45
2022/08/21 02:08:56;;;;;;;4.57;3.20;;;;;;;14.55;100.00;101624.34;5034372;28;20029;-48
2022/08/21 02:11:22;;;;;;;4.82;3.33;;;;;;;14.49;100.00;101617.81;5034233;28;20072;-47
2022/08/21 02:13:47;;;;;;;8.70;3.20;;;;;;;14.48;100.00;101624.19;5033997;28;20021;-45
2022/08/21 02:16:13;;;;;;;10.40;3.30;;;;;;;14.48;100.00;101620.66;5033769;28;20020;-47
2022/08/21 02:18:38;;;;;;;5.35;3.35;;;;;;;14.45;100.00;101616.47;5032236;28;20395;-48
2022/08/21 02:21:05;;;;;;;5.93;3.30;;;;;;;14.49;100.00;101615.13;5034095;28;20037;-45
2022/08/21 02:23:31;;;;;;;5.20;3.20;;;;;;;14.47;100.00;101608.22;5033635;28;20069;-46
2022/08/21 02:25:58;;;;;;;4.43;2.97;;;;;;;14.47;100.00;101619.81;5032450;28;20057;-46
2022/08/21 02:28:23;;;;;;;5.47;3.40;;;;;;;14.45;100.00;101616.47;5034397;28;20028;-48
2022/08/21 02:30:49;;;;;;;7.03;3.33;;;;;;;14.46;100.00;101620.84;5033332;28;20174;-46
2022/08/21 02:33:15;;;;;;;5.68;3.42;;;;;;;14.45;100.00;101616.47;5032694;28;20024;-45
2022/08/21 02:35:42;;;;;;;11.55;3.88;;;;;;;14.40;100.00;101617.97;5027005;28;20035;-47
2022/08/21 02:38:11;;;;;;;5.88;3.33;;;;;;;14.35;100.00;101605.88;5011484;28;20476;-46
2022/08/21 02:40:39;;;;;;;7.25;3.45;;;;;;;14.35;100.00;101618.47;5014025;28;20457;-49
2022/08/21 02:43:07;;;;;;;5.10;3.30;;;;;;;14.30;100.00;101602.00;5013961;28;20221;-44
2022/08/21 02:45:33;;;;;;;6.03;3.10;;;;;;;14.28;100.00;101604.03;5013252;28;20056;-45
2022/08/21 02:48:03;;;;;;;5.32;3.20;;;;;;;14.23;100.00;101601.84;5013118;28;20021;-46
2022/08/21 02:50:32;;;;;;;5.50;3.28;;;;;;;14.18;100.00;101609.56;5012735;28;20063;-48
2022/08/21 02:52:59;;;;;;;7.10;3.00;;;;;;;14.08;100.00;101607.00;5012038;28;20026;-46
2022/08/21 02:55:29;;;;;;;4.30;3.10;;;;;;;14.01;100.00;101607.84;5013725;28;20032;-44
2022/08/21 02:57:56;;;;;;;3.88;2.78;;;;;;;13.97;100.00;101602.81;5014329;28;20057;-45
2022/08/21 03:00:23;;;;;;;5.20;2.90;;;;;;;13.97;100.00;101602.81;5012852;28;20021;-47
2022/08/21 03:02:49;;;;;;;9.43;2.92;;;;;;;13.98;100.00;101603.63;5012758;28;20100;-45
2022/08/21 03:05:15;;;;;;;4.68;2.80;;;;;;;13.95;100.00;101601.28;5013449;28;20556;-45
2022/08/21 03:07:42;;;;;;;4.65;2.90;;;;;;;13.94;100.00;101605.00;5013290;28;20044;-47
2022/08/21 03:10:08;;;;;;;4.07;3.25;;;;;;;13.89;100.00;101604.63;5013516;28;20044;-47
2022/08/21 03:12:35;;;;;;;5.53;3.03;;;;;;;13.89;100.00;101602.78;5012579;28;20056;-44
2022/08/21 03:15:01;;;;;;;6.57;3.75;;;;;;;13.83;100.00;101605.28;5013295;28;20504;-46
2022/08/21 03:17:27;;;;;;;6.93;4.38;;;;;;;13.85;100.00;101606.81;5012787;28;20165;-44
2022/08/21 03:19:52;;;;;;;4.93;3.70;;;;;;;13.82;100.00;101588.34;5013308;28;20033;-46
2022/08/21 03:22:17;;;;;;;7.82;3.75;;;;;;;13.84;100.00;101590.88;5013275;28;20025;-47
2022/08/21 03:24:43;;;;;;;8.75;4.40;;;;;;;13.88;100.00;101590.34;5013504;28;20026;-46
2022/08/21 03:27:08;;;;;;;8.45;4.30;;;;;;;13.82;100.00;101590.19;5013439;28;20154;-48
2022/08/21 03:29:33;;;;;;;9.70;4.50;;;;;;;13.86;100.00;101594.22;4997240;28;20065;-46
2022/08/21 03:31:59;;;;;;;6.85;4.80;;;;;;;13.80;100.00;101585.81;5017926;28;20025;-45
2022/08/21 03:34:24;;;;;;;9.98;4.97;;;;;;;13.80;100.00;101582.31;5016224;28;20060;-45
2022/08/21 03:36:49;;;;;;;10.30;4.68;;;;;;;13.79;100.00;101577.94;5016112;28;20376;-46
2022/08/21 03:39:16;;;;;;;7.65;4.60;;;;;;;13.80;100.00;101582.31;5017055;28;20048;-46
2022/08/21 03:41:41;;;;;;;6.93;4.72;;;;;;;13.78;100.00;101578.91;5017407;28;20463;-45
2022/08/21 03:44:07;;;;;;;8.63;5.30;;;;;;;13.78;100.00;101576.22;5016027;28;20249;-47
2022/08/21 03:46:32;;;;;;;11.43;5.00;;;;;;;13.80;100.00;101575.09;5015867;28;20028;-45
2022/08/21 03:48:58;;;;;;;8.82;5.15;;;;;;;13.86;100.00;101575.44;5016304;28;20017;-48
2022/08/21 03:51:23;;;;;;;10.57;5.20;;;;;;;13.85;100.00;101573.72;5016037;28;20025;-45
2022/08/21 03:53:48;;;;;;;13.45;5.47;;;;;;;13.89;100.00;101575.09;5016030;28;20512;-45
2022/08/21 03:56:16;;;;;;;11.60;5.85;;;;;;;13.83;100.00;101573.06;5017534;28;20025;-45
2022/08/21 03:58:41;;;;;;;9.93;5.97;;;;;;;13.81;100.00;101575.91;5016473;28;20195;-45
2022/08/21 04:01:06;;;;;;;9.80;6.10;;;;;;;13.71;100.00;101569.84;5016298;28;20581;-44
2022/08/21 04:03:35;;;;;;;10.00;6.05;;;;;;;13.63;100.00;101581.41;5016059;28;20234;-45
2022/08/21 04:06:00;;;;;;;9.73;5.72;;;;;;;13.56;100.00;101575.00;5016450;28;20468;-45
2022/08/21 04:08:26;;;;;;;10.00;5.93;;;;;;;13.48;100.00;101583.03;5015624;28;20029;-46
2022/08/21 04:10:55;;;;;;;9.70;6.30;;;;;;;13.34;100.00;101579.97;5014362;28;20094;-45
2022/08/21 04:13:21;;;;;;;13.05;6.15;;;;;;;13.29;100.00;101584.09;5015064;28;20334;-47
2022/08/21 04:15:46;;;;;;;8.57;5.65;;;;;;;13.22;100.00;101586.56;5016328;28;20093;-48
2022/08/21 04:18:12;;;;;;;8.32;5.80;;;;;;;13.24;100.00;101593.47;5015592;28;20025;-43
2022/08/21 04:20:39;;;;;;;10.85;5.90;;;;;;;13.20;100.00;101592.13;5014863;28;20021;-45
2022/08/21 04:23:04;;;;;;;9.73;5.90;;;;;;;13.19;100.00;101594.97;5015436;28;20033;-47
2022/08/21 04:25:30;;;;;;;11.70;5.35;;;;;;;13.12;100.00;101601.94;5015541;28;20044;-45
2022/08/21 04:27:55;;;;;;;7.10;5.28;;;;;;;13.09;100.00;101596.91;5016644;28;20272;-45
2022/08/21 04:30:21;;;;;;;11.50;5.70;;;;;;;13.06;100.00;101598.91;5015291;28;20087;-45
2022/08/21 04:32:50;;;;;;;12.40;5.22;;;;;;;13.07;100.00;101599.75;5016456;28;20556;-49
2022/08/21 04:35:18;;;;;;;11.38;5.93;;;;;;;13.06;100.00;101608.78;5015757;28;20021;-46
2022/08/21 04:37:44;;;;;;;8.85;5.78;;;;;;;12.99;100.00;101599.72;5016236;28;20079;-49
2022/08/21 04:40:12;;;;;;;12.30;6.20;;;;;;;12.92;100.00;101606.72;5014211;28;20025;-45
2022/08/21 04:42:46;;;;;;;9.13;5.65;;;;;;;12.88;100.00;101606.16;5015709;28;20060;-46
2022/08/21 04:45:17;;;;;;;11.23;6.10;;;;;;;12.83;100.00;101595.94;5014344;28;20455;-44
2022/08/21 04:47:43;;;;;;;12.63;5.38;;;;;;;12.83;100.00;101603.09;5016325;28;20337;-44
2022/08/21 04:50:08;;;;;;;13.07;5.75;;;;;;;12.83;100.00;101612.00;5015644;28;20531;-45
2022/08/21 04:52:33;;;;;;;10.07;5.65;;;;;;;12.84;100.00;101604.78;5015649;28;20047;-46
2022/08/21 04:55:00;;;;;;;10.27;5.30;;;;;;;12.85;100.00;101601.97;5014972;28;20464;-44
2022/08/21 04:57:26;;;;;;;9.73;5.38;;;;;;;12.88;100.00;101600.78;5015832;28;20099;-46
2022/08/21 04:59:51;;;;;;;9.27;4.88;;;;;;;12.93;100.00;101603.84;5015644;28;20025;-44
2022/08/21 05:02:17;;;;;;;8.68;5.18;;;;;;;12.95;100.00;101603.69;5013563;28;20459;-45
2022/08/21 05:04:50;;;;;;;9.38;5.40;;;;;;;12.95;100.00;101607.22;5015025;28;20032;-46
2022/08/21 05:07:20;;;;;;;11.50;5.40;;;;;;;12.98;100.00;101606.06;5014891;28;20036;-45
2022/08/21 05:09:46;;;;;;;11.55;5.63;;;;;;;12.96;100.00;101614.25;5014926;28;20174;-45
2022/08/21 05:12:12;;;;;;;9.40;5.63;;;;;;;12.96;100.00;101614.25;5014157;28;20551;-47
2022/08/21 05:14:37;;;;;;;10.85;5.80;;;;;;;13.01;100.00;101617.31;5015585;28;20528;-46
2022/08/21 05:17:04;;;;;;;9.95;5.35;;;;;;;13.06;100.00;101620.34;5015843;28;20056;-45
2022/08/21 05:19:29;;;;;;;11.88;5.35;;;;;;;13.07;100.00;101619.38;5014773;28;20663;-45
2022/08/21 05:21:55;;;;;;;8.90;5.30;;;;;;;13.10;100.00;101620.88;5015199;28;20048;-43
2022/08/21 05:24:20;;;;;;;10.70;5.20;;;;;;;13.17;100.00;101623.75;5015045;28;20017;-45
2022/08/21 05:26:46;;;;;;;11.52;5.28;;;;;;;13.18;100.00;101630.81;5014887;28;20037;-45
2022/08/21 05:29:11;;;;;;;8.18;5.22;;;;;;;13.22;100.00;101633.03;5014935;28;20083;-44
2022/08/21 05:31:37;;;;;;;9.98;5.05;;;;;;;13.29;100.00;101633.25;5015425;28;20035;-45
2022/08/21 05:34:03;;;;;;;9.88;5.55;;;;;;;13.33;100.00;101636.47;5014996;28;20268;-48
2022/08/21 05:36:28;;;;;;;10.07;5.30;;;;;;;13.31;100.00;101635.75;5014111;28;20104;-48
2022/08/21 05:38:53;;;;;;;10.35;5.22;;;;;;;13.32;100.00;101640.13;5015174;28;20063;-46
2022/08/21 05:41:19;;;;;;;8.00;4.90;;;;;;;13.33;100.00;101642.66;5015358;28;20021;-45
2022/08/21 05:43:44;;;;;;;10.38;4.78;;;;;;;13.40;100.00;101632.13;5014913;28;20022;-45
2022/08/21 05:46:09;;;;;;;11.07;5.13;;;;;;;13.42;100.00;101635.50;5013335;28;20091;-48
2022/08/21 05:48:36;;;;;;;11.82;4.60;;;;;;;13.52;100.00;101633.53;5014392;28;20488;-49
2022/08/21 05:51:08;;;;;;;11.90;4.82;;;;;;;13.60;100.00;101632.72;5014765;28;20029;-46
2022/08/21 05:53:33;;;;;;;9.40;4.68;;;;;;;13.60;100.00;101633.56;5015202;28;20021;-46
2022/08/21 05:55:58;;;;;;;11.15;4.60;;;;;;;13.62;100.00;101636.94;5015022;28;20066;-47
2022/08/21 05:58:24;;;;;;;8.80;4.65;;;;;;;13.67;100.00;101633.75;5014821;28;20052;-49
2022/08/21 06:00:51;;;;;;;12.77;4.50;;;;;;;13.73;100.00;101632.25;5013726;28;20150;-48
2022/08/21 06:03:20;;;;;;;10.27;4.60;;;;;;;13.81;100.00;101634.97;5012405;28;20136;-46
2022/08/21 06:05:46;;;;;;;11.02;4.55;;;;;;;13.86;100.00;101638.00;5014487;28;20037;-46
2022/08/21 06:08:11;;;;;;;9.25;4.03;;;;;;;13.92;100.00;101639.22;5014426;28;20029;-45
2022/08/21 06:10:37;;;;;;;11.75;4.55;;;;;;;13.96;100.00;101636.03;5014774;28;20032;-46
2022/08/21 06:13:02;;;;;;;11.60;4.32;;;;;;;14.03;100.00;101632.69;5015303;28;20112;-46
2022/08/21 06:15:28;;;;;;;8.77;4.32;;;;;;;14.08;100.00;101633.88;5013777;28;20151;-45
2022/08/21 06:17:54;;;;;;;9.88;3.92;;;;;;;14.17;100.00;101637.41;5013712;28;20120;-44
2022/08/21 06:20:19;;;;;;;11.27;4.20;;;;;;;14.24;100.00;101641.13;5013590;28;20021;-47
2022/08/21 06:22:44;;;;;;;11.05;3.75;;;;;;;14.32;100.00;101640.28;5014291;28;20028;-43
2022/08/21 06:25:10;;;;;;;13.43;4.50;;;;;;;14.40;100.00;101645.69;5014119;28;20581;-45
2022/08/21 06:27:35;;;;;;;9.60;3.85;;;;;;;14.47;100.00;101645.84;5014762;28;20033;-45
2022/08/21 06:30:01;;;;;;;12.70;4.07;;;;;;;14.49;100.00;101633.09;5014244;28;20096;-45
2022/08/21 06:32:27;;;;;;;11.68;4.10;;;;;;;14.55;100.00;101633.25;5013807;28;20266;-45
2022/08/21 06:34:52;;;;;;;11.32;3.90;;;;;;;14.62;100.00;101638.84;5012494;28;20634;-44
2022/08/21 06:37:17;;;;;;;15.07;4.28;;;;;;;14.66;100.00;101631.28;5013200;28;20028;-46
2022/08/21 06:39:42;;;;;;;10.77;4.60;;;;;;;14.76;100.00;101639.16;5014587;28;20068;-44
2022/08/21 06:42:13;;;;;;;12.88;4.30;;;;;;;14.87;100.00;101644.22;5014637;28;20021;-46
2022/08/21 06:44:39;;;;;;;11.05;4.40;;;;;;;14.98;100.00;101637.63;5013581;28;20025;-44
2022/08/21 06:47:04;;;;;;;9.82;4.30;;;;;;;15.05;100.00;101638.63;5013653;28;20026;-45
2022/08/21 06:49:29;;;;;;;11.20;4.35;;;;;;;15.15;100.00;101643.81;5014287;28;20040;-49
2022/08/21 06:51:55;;;;;;;9.02;4.00;;;;;;;15.25;100.00;101639.91;5013733;28;20044;-47
2022/08/21 06:54:20;;;;;;;12.05;4.30;;;;;;;15.34;100.00;101648.78;5012654;28;20029;-45
2022/08/21 06:56:46;;;;;;;12.77;4.20;;;;;;;15.47;100.00;101642.88;5014838;28;20029;-46
2022/08/21 06:59:11;;;;;;;14.63;4.25;;;;;;;15.57;100.00;101642.69;5013277;28;20141;-44
2022/08/21 07:01:36;;;;;;;10.68;3.97;;;;;;;15.70;100.00;101642.09;5013734;28;20040;-45
2022/08/21 07:04:02;;;;;;;8.27;4.15;;;;;;;15.83;100.00;101635.19;5014608;28;20369;-45
2022/08/21 07:06:27;;;;;;;13.90;4.18;;;;;;;15.98;100.00;101634.44;5017073;28;20037;-45
2022/08/21 07:08:52;;;;;;;11.18;4.45;;;;;;;16.18;100.00;101640.19;5017969;28;20021;-48
2022/08/21 07:11:21;;;;;;;14.57;4.25;;;;;;;16.33;100.00;101637.56;5017557;28;20029;-45
2022/08/21 07:13:46;;;;;;;12.32;3.88;;;;;;;16.53;100.00;101638.75;5017648;28;20457;-49
2022/08/21 07:16:12;;;;;;;9.93;3.90;;;;;;;16.76;100.00;101638.72;5015599;28;20025;-45
2022/08/21 07:18:37;;;;;;;11.55;3.67;;;;;;;16.99;100.00;101637.88;5016912;28;20025;-47
2022/08/21 07:21:05;;;;;;;16.75;4.28;;;;;;;17.17;100.00;101640.22;5017232;28;20264;-48
2022/08/21 07:23:35;;;;;;;11.40;3.70;;;;;;;17.26;100.00;101628.31;5017920;28;20026;-49
2022/08/21 07:26:00;;;;;;;13.15;3.83;;;;;;;17.41;100.00;101640.97;5018209;28;20732;-45
2022/08/21 07:28:27;;;;;;;15.77;3.75;;;;;;;17.55;100.00;101637.44;5016378;28;20021;-45
2022/08/21 07:30:57;;;;;;;12.35;4.07;;;;;;;17.59;100.00;101635.19;5016997;28;20029;-46
2022/08/21 07:33:25;;;;;;;12.32;3.63;;;;;;;17.55;100.00;101633.84;5016577;28;20022;-46
2022/08/21 07:35:50;;;;;;;10.07;3.47;;;;;;;17.57;100.00;101632.66;5016517;28;20022;-48
2022/08/21 07:38:16;;;;;;;11.55;3.47;;;;;;;17.64;100.00;101640.84;5017510;28;20036;-47
2022/08/21 07:40:42;;;;;;;11.73;3.75;;;;;;;17.70;100.00;101635.53;5017246;28;20029;-47
2022/08/21 07:43:07;;;;;;;10.98;3.97;;;;;;;17.80;100.00;101637.91;5016515;28;20077;-47
2022/08/21 07:45:33;;;;;;;13.15;3.70;;;;;;;17.81;100.00;101641.47;5014846;28;20047;-44
2022/08/21 07:47:58;;;;;;;10.90;3.90;;;;;;;17.87;100.00;101638.88;5016940;28;20025;-45
2022/08/21 07:50:24;;;;;;;11.57;3.53;;;;;;;17.94;100.00;101638.09;5015836;28;20033;-45
2022/08/21 07:52:50;;;;;;;10.88;3.30;;;;;;;18.02;100.00;101641.53;5015902;28;20166;-45
2022/08/21 07:55:19;;;;;;;14.50;3.72;;;;;;;18.18;100.00;101642.34;5017359;28;20112;-49
2022/08/21 07:57:45;;;;;;;13.05;3.55;;;;;;;18.36;100.00;101637.31;5016002;28;20021;-45
2022/08/21 08:00:15;;;;;;;11.15;3.40;;;;;;;18.48;100.00;101637.63;5015520;28;20037;-47
2022/08/21 08:02:43;;;;;;;13.45;3.65;;;;;;;18.59;100.00;101645.22;5016785;28;20045;-45
2022/08/21 08:05:10;;;;;;;14.45;3.40;;;;;;;18.69;100.00;101631.38;5014435;28;20029;-45
2022/08/21 08:07:36;;;;;;;9.52;3.40;;;;;;;18.85;100.00;101638.38;5026901;28;20858;-46
2022/08/21 08:10:05;;;;;;;11.60;3.63;;;;;;;18.99;100.00;101631.19;5037334;28;20123;-44
2022/08/21 08:12:30;;;;;;;11.77;3.70;;;;;;;19.09;100.00;101631.66;5037286;28;20238;-46
2022/08/21 08:15:00;;;;;;;10.60;3.33;;;;;;;19.13;100.00;101632.97;5033354;28;20281;-49
2022/08/21 08:17:26;;;;;;;11.98;3.75;;;;;;;19.29;100.00;101634.50;5035763;28;20037;-46
2022/08/21 08:19:52;;;;;;;12.20;3.80;;;;;;;19.39;100.00;101629.56;5036120;28;20116;-47
2022/08/21 08:22:20;;;;;;;10.73;3.55;;;;;;;19.45;100.00;101630.66;5035645;28;20112;-46
2022/08/21 08:24:48;;;;;;;15.45;3.58;;;;;;;19.64;100.00;101633.66;5036681;28;20490;-46
2022/08/21 08:27:15;;;;;;;10.73;3.33;;;;;;;19.77;100.00;101624.75;5037037;28;20025;-45
2022/08/21 08:29:41;;;;;;;9.38;3.10;;;;;;;19.80;100.00;101627.91;5036239;28;20514;-47
2022/08/21 08:32:09;;;;;;;9.95;3.15;;;;;;;19.80;100.00;101630.59;5035493;28;20347;-46
2022/08/21 08:34:35;;;;;;;14.90;3.53;;;;;;;19.71;100.00;101635.34;5036301;28;20320;-46
2022/08/21 08:37:01;;;;;;;14.00;3.40;;;;;;;19.75;100.00;101624.94;5036082;28;20124;-46
2022/08/21 08:39:26;;;;;;;10.43;3.25;;;;;;;19.89;100.00;101623.97;5036070;28;20059;-47
2022/08/21 08:42:04;;;;;;;11.27;3.10;;;;;;;19.94;100.00;101620.63;5036640;28;20140;-46
2022/08/21 08:44:30;;;;;;;13.82;3.83;;;;;;;19.98;100.00;101613.78;5035569;28;20032;-48
2022/08/21 08:46:56;;;;;;;13.10;3.33;;;;;;;20.07;100.00;101615.25;5033351;28;20383;-49
2022/08/21 08:49:45;;;;;;;13.55;3.13;;;;;;;20.43;100.00;101622.16;5033865;28;20539;-47
2022/08/21 08:52:30;;;;;;;13.23;3.38;;;;;;;20.57;100.00;101619.47;5035380;28;20201;-48
2022/08/21 08:55:07;;;;;;;15.30;3.30;;;;;;;20.72;98.99;101606.56;5036272;28;20535;-46
2022/08/21 08:57:34;;;;;;;10.85;3.00;;;;;;;21.02;100.00;101614.25;5037052;28;20471;-46
2022/08/21 09:00:04;;;;;;;13.00;3.10;;;;;;;21.20;95.75;101610.88;5031633;28;20173;-46
2022/08/21 09:02:30;;;;;;;12.05;3.05;;;;;;;21.33;98.64;101608.09;5016133;28;20341;-46
2022/08/21 09:04:56;;;;;;;9.18;2.60;;;;;;;21.33;93.74;101610.00;5015625;28;20075;-47
2022/08/21 09:07:33;;;;;;;11.20;2.55;;;;;;;21.37;93.81;101605.81;5014188;28;20087;-46
2022/08/21 09:10:21;;;;;;;9.07;2.80;;;;;;;21.43;94.46;101603.06;5016221;28;20087;-48
2022/08/21 09:13:05;;;;;;;11.05;2.58;;;;;;;21.39;92.20;101603.72;5016606;28;20021;-46
2022/08/21 09:15:34;;;;;;;11.10;2.38;;;;;;;21.26;89.40;101601.84;5015808;28;20107;-47
2022/08/21 09:18:23;;;;;;;10.13;2.50;;;;;;;21.23;91.13;101594.13;5016144;28;20622;-46
2022/08/21 09:21:29;;;;;;;11.85;2.60;;;;;;;21.40;92.61;101605.34;5015017;28;20060;-47
2022/08/21 09:24:00;;;;;;;9.40;2.38;;;;;;;21.48;87.29;101596.19;4934687;29;20087;-46
2022/08/21 09:26:50;;;;;;;12.50;2.08;;;;;;;21.53;86.05;101599.91;4952845;28;20062;-48
2022/08/21 09:29:20;;;;;;;8.60;1.70;;;;;;;21.46;86.30;101604.50;4963743;28;20048;-48
2022/08/21 09:31:45;;;;;;;7.80;1.70;;;;;;;21.39;86.14;101601.81;5035487;28;20282;-46
2022/08/21 09:34:13;;;;;;;7.80;1.95;;;;;;;21.36;87.15;101598.69;5034396;28;20017;-47
2022/08/21 09:36:40;;;;;;;8.50;1.90;;;;;;;21.54;85.55;101603.47;5034780;28;20032;-49
2022/08/21 09:39:07;;;;;;;7.03;1.55;;;;;;;21.80;81.27;101606.03;5034483;28;20025;-47
2022/08/21 09:41:37;;;;;;;6.05;1.80;;;;;;;22.03;82.64;101601.97;5035224;28;20032;-45
2022/08/21 09:44:04;;;;;;;10.35;2.25;;;;;;;22.11;80.01;101604.41;5035019;28;20321;-46
2022/08/21 09:46:30;;;;;;;7.88;1.95;;;;;;;22.19;80.81;101608.75;5035115;28;20055;-50
2022/08/21 09:48:59;;;;;;;7.22;1.80;;;;;;;22.25;79.67;101607.88;5034501;28;20025;-47
2022/08/21 09:51:34;;;;;;;14.05;2.10;;;;;;;22.38;78.83;101606.97;5034272;28;20064;-46
2022/08/21 09:54:05;;;;;;;8.75;1.95;;;;;;;22.48;80.17;101607.31;5034041;28;20102;-50
2022/08/21 09:59:31;;;;;;;10.10;1.27;;;;;;;22.81;71.75;101599.88;5034425;28;20453;-49
2022/08/21 10:02:00;;;;;;;8.02;1.80;;;;;;;22.90;76.11;101598.56;5033540;28;20045;-46
2022/08/21 10:04:35;;;;;;;8.15;1.73;;;;;;;23.16;75.64;101602.91;5033609;28;20025;-46
2022/08/21 10:07:09;;;;;;;6.13;1.70;;;;;;;23.31;73.17;101599.00;5028235;28;20049;-45
2022/08/21 10:09:36;;;;;;;7.43;1.98;;;;;;;23.44;72.83;101594.19;5015189;28;20208;-46
2022/08/21 10:12:04;;;;;;;4.60;1.80;;;;;;;23.43;72.90;101594.44;5015554;28;20060;-49
2022/08/21 10:14:48;;;;;;;8.38;1.88;;;;;;;23.56;74.34;101596.16;5013972;28;20336;-47
2022/08/21 10:17:23;;;;;;;7.50;1.83;;;;;;;23.77;71.45;101592.91;5014345;28;20037;-48
2022/08/21 10:19:49;;;;;;;6.30;1.90;;;;;;;23.92;70.58;101598.00;5014730;28;20029;-45
2022/08/21 10:22:24;;;;;;;5.33;1.80;;;;;;;23.88;68.35;101585.91;5014170;28;20237;-47
2022/08/21 10:25:14;;;;;;;6.28;1.58;;;;;;;24.06;70.29;101601.34;5014500;28;20347;-46
2022/08/21 10:27:57;;;;;;;7.57;2.20;;;;;;;24.38;68.87;101595.63;5015118;28;20014;-48
2022/08/21 10:30:56;;;;;;;7.38;2.08;;;;;;;24.24;68.81;101592.28;5012270;28;20033;-49
2022/08/21 10:33:43;;;;;;;8.10;2.20;;;;;;;24.10;70.00;101596.25;5013931;28;20025;-45
2022/08/21 10:36:21;;;;;;;5.45;1.88;;;;;;;24.13;69.88;101595.81;5013014;28;20051;-46
2022/08/21 10:38:59;;;;;;;8.18;2.00;;;;;;;24.17;68.46;101583.38;5014415;28;20035;-45
2022/08/21 10:41:39;;;;;;;5.25;1.80;;;;;;;24.43;68.35;101587.56;5029892;28;20966;-46
2022/08/21 10:44:05;;;;;;;;;;;;;;;24.54;65.82;101589.50;5013209;28;20411;-46
2022/08/21 10:46:47;;;;;;;6.10;1.70;;;;;;;24.40;67.89;101596.22;5014346;28;19985;-47
2022/08/21 10:49:38;;;;;;;8.18;1.88;;;;;;;24.58;64.15;101587.94;5045287;28;20455;-47
2022/08/21 10:52:13;;;;;;;;;;;;;;;24.90;64.82;101584.03;5013714;28;20155;-49
2022/08/21 10:54:48;;;;;;;7.38;1.65;;;;;;;24.70;63.13;101585.22;5014602;28;19920;-49
2022/08/21 10:57:40;;;;;;;8.15;1.80;;;;;;;24.62;61.91;101582.03;5015028;28;20214;-46
2022/08/21 11:00:11;;;;;;;6.22;1.50;;;;;;;24.65;62.13;101585.09;5013393;28;20018;-45
2022/08/21 11:02:49;;;;;;;8.82;1.38;;;;;;;24.69;60.28;101577.25;5014172;28;20049;-47
2022/08/21 11:05:20;;;;;;;5.10;1.35;;;;;;;24.39;61.03;101578.19;5012939;28;20063;-48
2022/08/21 11:08:04;;;;;;;7.72;1.60;;;;;;;24.18;64.10;101569.47;5015068;28;20028;-48
2022/08/21 11:10:35;;;;;;;8.30;1.80;;;;;;;24.02;65.04;101572.88;5015274;28;20108;-45
2022/08/21 11:13:08;;;;;;;5.85;1.70;;;;;;;24.13;65.44;101574.78;5018635;28;20032;-46
2022/08/21 11:15:56;;;;;;;8.13;1.33;;;;;;;24.05;64.26;101577.88;5033337;28;20487;-49
2022/08/21 11:18:30;;;;;;;5.95;1.73;;;;;;;23.86;66.52;101577.09;5025147;28;20060;-45
2022/08/21 11:21:23;;;;;;;7.13;1.50;;;;;;;23.85;66.14;101572.72;5014229;28;20061;-45
2022/08/21 11:23:57;;;;;;;5.80;1.67;;;;;;;23.91;67.20;101581.84;5015084;28;20362;-46
2022/08/21 11:26:33;;;;;;;7.88;1.58;;;;;;;24.00;67.92;101577.75;5014672;28;20028;-47